sensor_id;sensor_type;location;lat;lon;timestamp;temperature;humidity
4435;DHT22;46552;52.150;8.428;2024-02-04T00:00:48;9.80;99.90
4435;DHT22;46552;52.150;8.428;2024-02-04T00:03:15;9.80;99.90
4435;DHT22;46552;52.150;8.428;2024-02-04T00:05:46;9.80;99.90
4435;DHT22;46552;52.150;8.428;2024-02-04T00:08:14;9.80;99.90
4435;DHT22;46552;52.150;8.428;2024-02-04T00:10:42;9.80;99.90
4435;DHT22;46552;52.150;8.428;2024-02-04T00:13:10;9.90;99.90
4435;DHT22;46552;52.150;8.428;2024-02-04T00:15:38;9.90;99.90
4435;DHT22;46552;52.150;8.428;2024-02-04T00:18:05;9.90;99.90
4435;DHT22;46552;52.150;8.428;2024-02-04T00:20:33;9.90;99.90
4435;DHT22;46552;52.150;8.428;2024-02-04T00:23:02;10.00;99.90
4435;DHT22;46552;52.150;8.428;2024-02-04T00:25:29;10.00;99.90
4435;DHT22;46552;52.150;8.428;2024-02-04T00:27:56;10.00;99.90
4435;DHT22;46552;52.150;8.428;2024-02-04T00:30:23;9.90;99.90
4435;DHT22;46552;52.150;8.428;2024-02-04T00:32:52;9.90;99.90
4435;DHT22;46552;52.150;8.428;2024-02-04T00:35:21;9.90;99.90
4435;DHT22;46552;52.150;8.428;2024-02-04T00:37:49;9.90;99.90
4435;DHT22;46552;52.150;8.428;2024-02-04T00:40:18;9.90;99.90
4435;DHT22;46552;52.150;8.428;2024-02-04T00:42:45;9.90;99.90
4435;DHT22;46552;52.150;8.428;2024-02-04T00:45:13;9.90;99.90
4435;DHT22;46552;52.150;8.428;2024-02-04T00:47:40;9.90;99.90
4435;DHT22;46552;52.150;8.428;2024-02-04T00:50:08;9.90;99.90
4435;DHT22;46552;52.150;8.428;2024-02-04T00:52:35;9.90;99.90
4435;DHT22;46552;52.150;8.428;2024-02-04T00:55:03;9.90;99.90
4435;DHT22;46552;52.150;8.428;2024-02-04T00:57:32;9.90;99.90
4435;DHT22;46552;52.150;8.428;2024-02-04T00:59:59;9.90;99.90
4435;DHT22;46552;52.150;8.428;2024-02-04T01:02:26;9.90;99.90
4435;DHT22;46552;52.150;8.428;2024-02-04T01:04:53;9.90;99.90
4435;DHT22;46552;52.150;8.428;2024-02-04T01:07:21;9.90;99.90
4435;DHT22;46552;52.150;8.428;2024-02-04T01:09:48;9.80;99.90
4435;DHT22;46552;52.150;8.428;2024-02-04T01:12:15;9.80;99.90
4435;DHT22;46552;52.150;8.428;2024-02-04T01:14:44;9.80;99.90
4435;DHT22;46552;52.150;8.428;2024-02-04T01:17:11;9.80;99.90
4435;DHT22;46552;52.150;8.428;2024-02-04T01:19:38;9.80;99.90
4435;DHT22;46552;52.150;8.428;2024-02-04T01:22:06;9.80;99.90
4435;DHT22;46552;52.150;8.428;2024-02-04T01:24:34;9.70;99.90
4435;DHT22;46552;52.150;8.428;2024-02-04T01:27:01;9.70;99.90
4435;DHT22;46552;52.150;8.428;2024-02-04T01:29:28;9.80;99.90
4435;DHT22;46552;52.150;8.428;2024-02-04T01:31:57;9.70;99.90
4435;DHT22;46552;52.150;8.428;2024-02-04T01:34:24;9.80;99.90
4435;DHT22;46552;52.150;8.428;2024-02-04T01:36:52;9.80;99.90
4435;DHT22;46552;52.150;8.428;2024-02-04T01:39:19;9.80;99.90
4435;DHT22;46552;52.150;8.428;2024-02-04T01:41:46;9.80;99.90
4435;DHT22;46552;52.150;8.428;2024-02-04T01:44:13;9.80;99.90
4435;DHT22;46552;52.150;8.428;2024-02-04T01:46:41;9.80;99.90
4435;DHT22;46552;52.150;8.428;2024-02-04T01:49:11;9.80;99.90
4435;DHT22;46552;52.150;8.428;2024-02-04T01:51:38;9.90;99.90
4435;DHT22;46552;52.150;8.428;2024-02-04T01:54:07;9.90;99.90
4435;DHT22;46552;52.150;8.428;2024-02-04T01:56:35;9.90;99.90
4435;DHT22;46552;52.150;8.428;2024-02-04T01:59:03;10.00;99.90
4435;DHT22;46552;52.150;8.428;2024-02-04T02:01:31;10.00;99.90
4435;DHT22;46552;52.150;8.428;2024-02-04T02:04:00;10.00;99.90
4435;DHT22;46552;52.150;8.428;2024-02-04T02:06:30;10.00;99.90
4435;DHT22;46552;52.150;8.428;2024-02-04T02:08:59;10.00;99.90
4435;DHT22;46552;52.150;8.428;2024-02-04T02:11:37;10.00;99.90
4435;DHT22;46552;52.150;8.428;2024-02-04T02:14:12;10.00;99.90
4435;DHT22;46552;52.150;8.428;2024-02-04T02:16:40;10.00;99.90
4435;DHT22;46552;52.150;8.428;2024-02-04T02:19:33;10.10;99.90
4435;DHT22;46552;52.150;8.428;2024-02-04T02:22:23;10.10;99.90
4435;DHT22;46552;52.150;8.428;2024-02-04T02:24:55;10.00;99.90
4435;DHT22;46552;52.150;8.428;2024-02-04T02:27:24;10.00;99.90
4435;DHT22;46552;52.150;8.428;2024-02-04T02:29:52;10.00;99.90
4435;DHT22;46552;52.150;8.428;2024-02-04T02:32:19;10.00;99.90
4435;DHT22;46552;52.150;8.428;2024-02-04T02:34:47;10.00;99.90
4435;DHT22;46552;52.150;8.428;2024-02-04T02:37:23;10.00;99.90
4435;DHT22;46552;52.150;8.428;2024-02-04T02:39:59;10.00;99.90
4435;DHT22;46552;52.150;8.428;2024-02-04T02:42:29;10.00;99.90
4435;DHT22;46552;52.150;8.428;2024-02-04T02:44:57;10.00;99.90
4435;DHT22;46552;52.150;8.428;2024-02-04T02:47:26;10.00;99.90
4435;DHT22;46552;52.150;8.428;2024-02-04T02:49:55;10.00;99.90
4435;DHT22;46552;52.150;8.428;2024-02-04T02:52:23;10.00;99.90
4435;DHT22;46552;52.150;8.428;2024-02-04T02:54:50;10.00;99.90
4435;DHT22;46552;52.150;8.428;2024-02-04T02:57:19;10.00;99.90
4435;DHT22;46552;52.150;8.428;2024-02-04T02:59:46;10.00;99.90
4435;DHT22;46552;52.150;8.428;2024-02-04T03:02:14;9.90;99.90
4435;DHT22;46552;52.150;8.428;2024-02-04T03:04:41;9.90;99.90
4435;DHT22;46552;52.150;8.428;2024-02-04T03:07:08;9.90;99.90
4435;DHT22;46552;52.150;8.428;2024-02-04T03:09:37;9.80;99.90
4435;DHT22;46552;52.150;8.428;2024-02-04T03:12:04;9.80;99.90
4435;DHT22;46552;52.150;8.428;2024-02-04T03:14:33;9.80;99.90
4435;DHT22;46552;52.150;8.428;2024-02-04T03:17:00;9.80;99.90
4435;DHT22;46552;52.150;8.428;2024-02-04T03:19:27;9.80;99.90
4435;DHT22;46552;52.150;8.428;2024-02-04T03:21:55;9.80;99.90
4435;DHT22;46552;52.150;8.428;2024-02-04T03:24:22;9.80;99.90
4435;DHT22;46552;52.150;8.428;2024-02-04T03:26:49;9.80;99.90
4435;DHT22;46552;52.150;8.428;2024-02-04T03:29:16;9.80;99.90
4435;DHT22;46552;52.150;8.428;2024-02-04T03:31:45;9.80;99.90
4435;DHT22;46552;52.150;8.428;2024-02-04T03:34:12;9.70;99.90
4435;DHT22;46552;52.150;8.428;2024-02-04T03:36:39;9.70;99.90
4435;DHT22;46552;52.150;8.428;2024-02-04T03:39:06;9.70;99.90
4435;DHT22;46552;52.150;8.428;2024-02-04T03:41:33;9.70;99.90
4435;DHT22;46552;52.150;8.428;2024-02-04T03:44:01;9.70;99.90
4435;DHT22;46552;52.150;8.428;2024-02-04T03:46:29;9.60;99.90
4435;DHT22;46552;52.150;8.428;2024-02-04T03:48:58;9.60;99.90
4435;DHT22;46552;52.150;8.428;2024-02-04T03:51:26;9.60;99.90
4435;DHT22;46552;52.150;8.428;2024-02-04T03:53:53;9.60;99.90
4435;DHT22;46552;52.150;8.428;2024-02-04T03:56:20;9.60;99.90
4435;DHT22;46552;52.150;8.428;2024-02-04T03:58:47;9.60;99.90
4435;DHT22;46552;52.150;8.428;2024-02-04T04:01:14;9.70;99.90
4435;DHT22;46552;52.150;8.428;2024-02-04T04:03:41;9.70;99.90
4435;DHT22;46552;52.150;8.428;2024-02-04T04:06:10;9.70;99.90
4435;DHT22;46552;52.150;8.428;2024-02-04T04:08:38;9.80;99.90
4435;DHT22;46552;52.150;8.428;2024-02-04T04:11:08;9.80;99.90
4435;DHT22;46552;52.150;8.428;2024-02-04T04:13:36;9.80;99.90
4435;DHT22;46552;52.150;8.428;2024-02-04T04:16:04;9.80;99.90
4435;DHT22;46552;52.150;8.428;2024-02-04T04:18:32;9.90;99.90
4435;DHT22;46552;52.150;8.428;2024-02-04T04:20:59;9.80;99.90
4435;DHT22;46552;52.150;8.428;2024-02-04T04:23:28;9.90;99.90
4435;DHT22;46552;52.150;8.428;2024-02-04T04:25:55;9.90;99.90
4435;DHT22;46552;52.150;8.428;2024-02-04T04:28:23;9.90;99.90
4435;DHT22;46552;52.150;8.428;2024-02-04T04:30:50;9.90;99.90
4435;DHT22;46552;52.150;8.428;2024-02-04T04:33:19;10.00;99.90
4435;DHT22;46552;52.150;8.428;2024-02-04T04:35:46;9.90;99.90
4435;DHT22;46552;52.150;8.428;2024-02-04T04:38:13;9.90;99.90
4435;DHT22;46552;52.150;8.428;2024-02-04T04:40:42;10.00;99.90
4435;DHT22;46552;52.150;8.428;2024-02-04T04:43:09;9.90;99.90
4435;DHT22;46552;52.150;8.428;2024-02-04T04:45:37;10.00;99.90
4435;DHT22;46552;52.150;8.428;2024-02-04T04:48:05;10.00;99.90
4435;DHT22;46552;52.150;8.428;2024-02-04T04:50:33;10.00;99.90
4435;DHT22;46552;52.150;8.428;2024-02-04T04:53:00;10.00;99.90
4435;DHT22;46552;52.150;8.428;2024-02-04T04:55:27;10.00;99.90
4435;DHT22;46552;52.150;8.428;2024-02-04T04:57:56;9.90;99.90
4435;DHT22;46552;52.150;8.428;2024-02-04T05:00:24;9.90;99.90
4435;DHT22;46552;52.150;8.428;2024-02-04T05:02:51;9.90;99.90
4435;DHT22;46552;52.150;8.428;2024-02-04T05:05:19;9.90;99.90
4435;DHT22;46552;52.150;8.428;2024-02-04T05:07:46;9.80;99.90
4435;DHT22;46552;52.150;8.428;2024-02-04T05:10:14;9.80;99.90
4435;DHT22;46552;52.150;8.428;2024-02-04T05:12:41;9.90;99.90
4435;DHT22;46552;52.150;8.428;2024-02-04T05:15:10;9.90;99.90
4435;DHT22;46552;52.150;8.428;2024-02-04T05:17:37;9.90;99.90
4435;DHT22;46552;52.150;8.428;2024-02-04T05:20:06;9.80;99.90
4435;DHT22;46552;52.150;8.428;2024-02-04T05:22:33;9.90;99.90
4435;DHT22;46552;52.150;8.428;2024-02-04T05:25:02;9.90;99.90
4435;DHT22;46552;52.150;8.428;2024-02-04T05:27:30;9.90;99.90
4435;DHT22;46552;52.150;8.428;2024-02-04T05:29:59;9.90;99.90
4435;DHT22;46552;52.150;8.428;2024-02-04T05:32:28;9.90;99.90
4435;DHT22;46552;52.150;8.428;2024-02-04T05:34:55;9.90;99.90
4435;DHT22;46552;52.150;8.428;2024-02-04T05:37:23;9.90;99.90
4435;DHT22;46552;52.150;8.428;2024-02-04T05:39:50;9.80;99.90
4435;DHT22;46552;52.150;8.428;2024-02-04T05:42:17;9.80;99.90
4435;DHT22;46552;52.150;8.428;2024-02-04T05:44:44;9.90;99.90
4435;DHT22;46552;52.150;8.428;2024-02-04T05:47:11;9.90;99.90
4435;DHT22;46552;52.150;8.428;2024-02-04T05:49:40;9.80;99.90
4435;DHT22;46552;52.150;8.428;2024-02-04T05:52:08;9.80;99.90
4435;DHT22;46552;52.150;8.428;2024-02-04T05:54:39;9.80;99.90
4435;DHT22;46552;52.150;8.428;2024-02-04T05:57:07;9.80;99.90
4435;DHT22;46552;52.150;8.428;2024-02-04T05:59:34;9.80;99.90
4435;DHT22;46552;52.150;8.428;2024-02-04T06:02:01;9.80;99.90
4435;DHT22;46552;52.150;8.428;2024-02-04T06:04:29;9.70;99.90
4435;DHT22;46552;52.150;8.428;2024-02-04T06:06:59;9.60;99.90
4435;DHT22;46552;52.150;8.428;2024-02-04T06:09:27;9.60;99.90
4435;DHT22;46552;52.150;8.428;2024-02-04T06:11:54;9.60;99.90
4435;DHT22;46552;52.150;8.428;2024-02-04T06:14:21;9.60;99.90
4435;DHT22;46552;52.150;8.428;2024-02-04T06:16:49;9.50;99.90
4435;DHT22;46552;52.150;8.428;2024-02-04T06:19:16;9.50;99.90
4435;DHT22;46552;52.150;8.428;2024-02-04T06:21:43;9.50;99.90
4435;DHT22;46552;52.150;8.428;2024-02-04T06:24:12;9.50;99.90
4435;DHT22;46552;52.150;8.428;2024-02-04T06:26:39;9.50;99.90
4435;DHT22;46552;52.150;8.428;2024-02-04T06:29:07;9.50;99.90
4435;DHT22;46552;52.150;8.428;2024-02-04T06:31:34;9.40;99.90
4435;DHT22;46552;52.150;8.428;2024-02-04T06:34:01;9.50;99.90
4435;DHT22;46552;52.150;8.428;2024-02-04T06:36:28;9.50;99.90
4435;DHT22;46552;52.150;8.428;2024-02-04T06:38:55;9.50;99.90
4435;DHT22;46552;52.150;8.428;2024-02-04T06:41:25;9.50;99.90
4435;DHT22;46552;52.150;8.428;2024-02-04T06:43:53;9.50;99.90
4435;DHT22;46552;52.150;8.428;2024-02-04T06:46:27;9.50;99.90
4435;DHT22;46552;52.150;8.428;2024-02-04T06:48:55;9.50;99.90
4435;DHT22;46552;52.150;8.428;2024-02-04T06:51:23;9.50;99.90
4435;DHT22;46552;52.150;8.428;2024-02-04T06:53:50;9.50;99.90
4435;DHT22;46552;52.150;8.428;2024-02-04T06:56:17;9.60;99.90
4435;DHT22;46552;52.150;8.428;2024-02-04T06:58:46;9.60;99.90
4435;DHT22;46552;52.150;8.428;2024-02-04T07:01:14;9.60;99.90
4435;DHT22;46552;52.150;8.428;2024-02-04T07:03:41;9.60;99.90
4435;DHT22;46552;52.150;8.428;2024-02-04T07:06:09;9.60;99.90
4435;DHT22;46552;52.150;8.428;2024-02-04T07:08:36;9.60;99.90
4435;DHT22;46552;52.150;8.428;2024-02-04T07:11:04;9.60;99.90
4435;DHT22;46552;52.150;8.428;2024-02-04T07:13:31;9.60;99.90
4435;DHT22;46552;52.150;8.428;2024-02-04T07:16:00;9.60;99.90
4435;DHT22;46552;52.150;8.428;2024-02-04T07:18:27;9.60;99.90
4435;DHT22;46552;52.150;8.428;2024-02-04T07:20:55;9.60;99.90
4435;DHT22;46552;52.150;8.428;2024-02-04T07:23:22;9.70;99.90
4435;DHT22;46552;52.150;8.428;2024-02-04T07:25:49;9.70;99.90
4435;DHT22;46552;52.150;8.428;2024-02-04T07:28:16;9.70;99.90
4435;DHT22;46552;52.150;8.428;2024-02-04T07:30:43;9.70;99.90
4435;DHT22;46552;52.150;8.428;2024-02-04T07:33:13;9.70;99.90
4435;DHT22;46552;52.150;8.428;2024-02-04T07:35:40;9.60;99.90
4435;DHT22;46552;52.150;8.428;2024-02-04T07:38:07;9.60;99.90
4435;DHT22;46552;52.150;8.428;2024-02-04T07:40:34;9.60;99.90
4435;DHT22;46552;52.150;8.428;2024-02-04T07:43:02;9.60;99.90
4435;DHT22;46552;52.150;8.428;2024-02-04T07:45:29;9.60;99.90
4435;DHT22;46552;52.150;8.428;2024-02-04T07:47:56;9.60;99.90
4435;DHT22;46552;52.150;8.428;2024-02-04T07:50:25;9.50;99.90
4435;DHT22;46552;52.150;8.428;2024-02-04T07:52:52;9.50;99.90
4435;DHT22;46552;52.150;8.428;2024-02-04T07:55:20;9.50;99.90
4435;DHT22;46552;52.150;8.428;2024-02-04T07:57:47;9.50;99.90
4435;DHT22;46552;52.150;8.428;2024-02-04T08:00:14;9.50;99.90
4435;DHT22;46552;52.150;8.428;2024-02-04T08:02:44;9.50;99.90
4435;DHT22;46552;52.150;8.428;2024-02-04T08:05:11;9.50;99.90
4435;DHT22;46552;52.150;8.428;2024-02-04T08:07:40;9.50;99.90
4435;DHT22;46552;52.150;8.428;2024-02-04T08:10:08;9.50;99.90
4435;DHT22;46552;52.150;8.428;2024-02-04T08:12:35;9.50;99.90
4435;DHT22;46552;52.150;8.428;2024-02-04T08:15:03;9.50;99.90
4435;DHT22;46552;52.150;8.428;2024-02-04T08:17:30;9.50;99.90
4435;DHT22;46552;52.150;8.428;2024-02-04T08:19:59;9.50;99.90
4435;DHT22;46552;52.150;8.428;2024-02-04T08:22:26;9.40;99.90
4435;DHT22;46552;52.150;8.428;2024-02-04T08:24:54;9.50;99.90
4435;DHT22;46552;52.150;8.428;2024-02-04T08:27:22;9.50;99.90
4435;DHT22;46552;52.150;8.428;2024-02-04T08:29:49;9.50;99.90
4435;DHT22;46552;52.150;8.428;2024-02-04T08:32:17;9.50;99.90
4435;DHT22;46552;52.150;8.428;2024-02-04T08:34:44;9.50;99.90
4435;DHT22;46552;52.150;8.428;2024-02-04T08:37:11;9.50;99.90
4435;DHT22;46552;52.150;8.428;2024-02-04T08:39:38;9.50;99.90
4435;DHT22;46552;52.150;8.428;2024-02-04T08:42:07;9.50;99.90
4435;DHT22;46552;52.150;8.428;2024-02-04T08:44:34;9.40;99.90
4435;DHT22;46552;52.150;8.428;2024-02-04T08:47:01;9.50;99.90
4435;DHT22;46552;52.150;8.428;2024-02-04T08:49:29;9.50;99.90
4435;DHT22;46552;52.150;8.428;2024-02-04T08:51:58;9.50;99.90
4435;DHT22;46552;52.150;8.428;2024-02-04T08:54:26;9.50;99.90
4435;DHT22;46552;52.150;8.428;2024-02-04T08:56:53;9.50;99.90
4435;DHT22;46552;52.150;8.428;2024-02-04T08:59:22;9.50;99.90
4435;DHT22;46552;52.150;8.428;2024-02-04T09:01:50;9.50;99.90
4435;DHT22;46552;52.150;8.428;2024-02-04T09:04:17;9.50;99.90
4435;DHT22;46552;52.150;8.428;2024-02-04T09:06:45;9.50;99.90
4435;DHT22;46552;52.150;8.428;2024-02-04T09:09:12;9.50;99.90
4435;DHT22;46552;52.150;8.428;2024-02-04T09:11:39;9.60;99.90
4435;DHT22;46552;52.150;8.428;2024-02-04T09:14:06;9.60;99.90
4435;DHT22;46552;52.150;8.428;2024-02-04T09:16:37;9.60;99.90
4435;DHT22;46552;52.150;8.428;2024-02-04T09:19:04;9.60;99.90
4435;DHT22;46552;52.150;8.428;2024-02-04T09:21:32;9.70;99.90
4435;DHT22;46552;52.150;8.428;2024-02-04T09:23:59;9.70;99.90
4435;DHT22;46552;52.150;8.428;2024-02-04T09:26:26;9.50;99.90
4435;DHT22;46552;52.150;8.428;2024-02-04T09:28:53;9.70;99.90
4435;DHT22;46552;52.150;8.428;2024-02-04T09:31:23;9.70;99.90
4435;DHT22;46552;52.150;8.428;2024-02-04T09:33:52;9.70;99.90
4435;DHT22;46552;52.150;8.428;2024-02-04T09:36:19;9.70;99.90
4435;DHT22;46552;52.150;8.428;2024-02-04T09:38:48;9.70;99.90
4435;DHT22;46552;52.150;8.428;2024-02-04T09:41:15;9.80;99.90
4435;DHT22;46552;52.150;8.428;2024-02-04T09:43:43;9.80;99.90
4435;DHT22;46552;52.150;8.428;2024-02-04T09:46:12;9.80;99.90
4435;DHT22;46552;52.150;8.428;2024-02-04T09:48:41;9.80;99.90
4435;DHT22;46552;52.150;8.428;2024-02-04T09:51:13;9.80;99.90
4435;DHT22;46552;52.150;8.428;2024-02-04T09:53:44;9.80;99.90
4435;DHT22;46552;52.150;8.428;2024-02-04T09:56:12;9.80;99.90
4435;DHT22;46552;52.150;8.428;2024-02-04T09:58:39;9.80;99.90
4435;DHT22;46552;52.150;8.428;2024-02-04T10:01:07;9.80;99.90
4435;DHT22;46552;52.150;8.428;2024-02-04T10:03:35;9.80;99.90
4435;DHT22;46552;52.150;8.428;2024-02-04T10:06:02;9.80;99.90
4435;DHT22;46552;52.150;8.428;2024-02-04T10:08:32;9.90;99.90
4435;DHT22;46552;52.150;8.428;2024-02-04T10:10:59;9.90;99.90
4435;DHT22;46552;52.150;8.428;2024-02-04T10:13:26;9.90;99.90
4435;DHT22;46552;52.150;8.428;2024-02-04T10:15:53;9.90;99.90
4435;DHT22;46552;52.150;8.428;2024-02-04T10:18:21;9.80;99.90
4435;DHT22;46552;52.150;8.428;2024-02-04T10:20:49;9.90;99.90
4435;DHT22;46552;52.150;8.428;2024-02-04T10:23:16;9.90;99.90
4435;DHT22;46552;52.150;8.428;2024-02-04T10:25:45;9.90;99.90
4435;DHT22;46552;52.150;8.428;2024-02-04T10:28:13;9.90;99.90
4435;DHT22;46552;52.150;8.428;2024-02-04T10:30:41;9.90;99.90
4435;DHT22;46552;52.150;8.428;2024-02-04T10:33:08;9.90;99.90
4435;DHT22;46552;52.150;8.428;2024-02-04T10:35:36;9.90;99.90
4435;DHT22;46552;52.150;8.428;2024-02-04T10:38:04;10.00;99.90
4435;DHT22;46552;52.150;8.428;2024-02-04T10:40:32;10.00;99.90
4435;DHT22;46552;52.150;8.428;2024-02-04T10:43:04;10.00;99.90
4435;DHT22;46552;52.150;8.428;2024-02-04T10:45:32;10.10;99.90
4435;DHT22;46552;52.150;8.428;2024-02-04T10:48:01;10.10;99.90
4435;DHT22;46552;52.150;8.428;2024-02-04T10:50:29;10.00;99.90
4435;DHT22;46552;52.150;8.428;2024-02-04T10:52:59;10.00;99.90
4435;DHT22;46552;52.150;8.428;2024-02-04T10:55:30;10.00;99.90
4435;DHT22;46552;52.150;8.428;2024-02-04T10:57:58;10.00;99.90
4435;DHT22;46552;52.150;8.428;2024-02-04T11:00:28;10.00;99.90
4435;DHT22;46552;52.150;8.428;2024-02-04T11:02:57;10.00;99.90
4435;DHT22;46552;52.150;8.428;2024-02-04T11:05:26;10.00;99.90
4435;DHT22;46552;52.150;8.428;2024-02-04T11:07:55;10.10;99.90
4435;DHT22;46552;52.150;8.428;2024-02-04T11:10:23;10.10;99.90
4435;DHT22;46552;52.150;8.428;2024-02-04T11:12:52;10.20;99.90
4435;DHT22;46552;52.150;8.428;2024-02-04T11:15:20;10.40;99.90
4435;DHT22;46552;52.150;8.428;2024-02-04T11:18:05;10.50;99.90
4435;DHT22;46552;52.150;8.428;2024-02-04T11:20:52;10.60;99.90
4435;DHT22;46552;52.150;8.428;2024-02-04T11:23:37;10.70;99.90
4435;DHT22;46552;52.150;8.428;2024-02-04T11:26:09;10.60;99.90
4435;DHT22;46552;52.150;8.428;2024-02-04T11:28:37;10.60;99.90
4435;DHT22;46552;52.150;8.428;2024-02-04T11:31:05;10.50;99.90
4435;DHT22;46552;52.150;8.428;2024-02-04T11:33:42;10.40;99.90
4435;DHT22;46552;52.150;8.428;2024-02-04T11:36:14;10.40;99.90
4435;DHT22;46552;52.150;8.428;2024-02-04T11:38:44;10.30;99.90
4435;DHT22;46552;52.150;8.428;2024-02-04T11:41:22;10.30;99.90
4435;DHT22;46552;52.150;8.428;2024-02-04T11:43:52;10.30;99.90
4435;DHT22;46552;52.150;8.428;2024-02-04T11:46:20;10.30;99.90
4435;DHT22;46552;52.150;8.428;2024-02-04T11:48:53;10.30;99.90
4435;DHT22;46552;52.150;8.428;2024-02-04T11:51:23;10.30;99.90
4435;DHT22;46552;52.150;8.428;2024-02-04T11:53:50;10.30;99.90
4435;DHT22;46552;52.150;8.428;2024-02-04T11:56:18;10.40;99.90
4435;DHT22;46552;52.150;8.428;2024-02-04T11:58:45;10.40;99.90
4435;DHT22;46552;52.150;8.428;2024-02-04T12:01:12;10.40;99.90
4435;DHT22;46552;52.150;8.428;2024-02-04T12:03:41;10.30;99.90
4435;DHT22;46552;52.150;8.428;2024-02-04T12:06:10;10.30;99.90
4435;DHT22;46552;52.150;8.428;2024-02-04T12:08:41;10.30;99.90
4435;DHT22;46552;52.150;8.428;2024-02-04T12:11:09;10.30;99.90
4435;DHT22;46552;52.150;8.428;2024-02-04T12:13:36;10.30;99.90
4435;DHT22;46552;52.150;8.428;2024-02-04T12:16:05;10.40;99.90
4435;DHT22;46552;52.150;8.428;2024-02-04T12:18:34;10.40;99.90
4435;DHT22;46552;52.150;8.428;2024-02-04T12:21:01;10.40;99.90
4435;DHT22;46552;52.150;8.428;2024-02-04T12:23:31;10.40;99.90
4435;DHT22;46552;52.150;8.428;2024-02-04T12:25:58;10.40;99.90
4435;DHT22;46552;52.150;8.428;2024-02-04T12:28:26;10.40;99.90
4435;DHT22;46552;52.150;8.428;2024-02-04T12:30:54;10.30;99.90
4435;DHT22;46552;52.150;8.428;2024-02-04T12:33:21;10.30;99.90
4435;DHT22;46552;52.150;8.428;2024-02-04T12:35:52;10.30;99.90
4435;DHT22;46552;52.150;8.428;2024-02-04T12:38:21;10.30;99.90
4435;DHT22;46552;52.150;8.428;2024-02-04T12:40:50;10.40;99.90
4435;DHT22;46552;52.150;8.428;2024-02-04T12:43:17;10.40;99.90
4435;DHT22;46552;52.150;8.428;2024-02-04T12:45:45;10.40;99.90
4435;DHT22;46552;52.150;8.428;2024-02-04T12:48:15;10.40;99.90
4435;DHT22;46552;52.150;8.428;2024-02-04T12:50:44;10.30;99.90
4435;DHT22;46552;52.150;8.428;2024-02-04T12:53:11;10.30;99.90
4435;DHT22;46552;52.150;8.428;2024-02-04T12:55:38;10.30;99.90
4435;DHT22;46552;52.150;8.428;2024-02-04T12:58:08;10.30;99.90
4435;DHT22;46552;52.150;8.428;2024-02-04T13:00:38;10.30;99.90
4435;DHT22;46552;52.150;8.428;2024-02-04T13:03:08;10.30;99.90
4435;DHT22;46552;52.150;8.428;2024-02-04T13:05:36;10.30;99.90
4435;DHT22;46552;52.150;8.428;2024-02-04T13:08:06;10.30;99.90
4435;DHT22;46552;52.150;8.428;2024-02-04T13:10:34;10.30;99.90
4435;DHT22;46552;52.150;8.428;2024-02-04T13:13:03;10.30;99.90
4435;DHT22;46552;52.150;8.428;2024-02-04T13:15:36;10.30;99.90
4435;DHT22;46552;52.150;8.428;2024-02-04T13:18:03;10.30;99.90
4435;DHT22;46552;52.150;8.428;2024-02-04T13:20:31;10.40;99.90
4435;DHT22;46552;52.150;8.428;2024-02-04T13:22:59;10.40;99.90
4435;DHT22;46552;52.150;8.428;2024-02-04T13:25:29;10.30;99.90
4435;DHT22;46552;52.150;8.428;2024-02-04T13:27:56;10.40;99.90
4435;DHT22;46552;52.150;8.428;2024-02-04T13:30:24;10.30;99.90
4435;DHT22;46552;52.150;8.428;2024-02-04T13:32:54;10.30;99.90
4435;DHT22;46552;52.150;8.428;2024-02-04T13:35:23;10.30;99.90
4435;DHT22;46552;52.150;8.428;2024-02-04T13:37:50;10.30;99.90
4435;DHT22;46552;52.150;8.428;2024-02-04T13:40:18;10.30;99.90
4435;DHT22;46552;52.150;8.428;2024-02-04T13:42:46;10.30;99.90
4435;DHT22;46552;52.150;8.428;2024-02-04T13:45:13;10.30;99.90
4435;DHT22;46552;52.150;8.428;2024-02-04T13:47:40;10.30;99.90
4435;DHT22;46552;52.150;8.428;2024-02-04T13:50:09;10.40;99.90
4435;DHT22;46552;52.150;8.428;2024-02-04T13:52:37;10.40;99.90
4435;DHT22;46552;52.150;8.428;2024-02-04T13:55:06;10.40;99.90
4435;DHT22;46552;52.150;8.428;2024-02-04T13:57:33;10.40;99.90
4435;DHT22;46552;52.150;8.428;2024-02-04T14:00:01;10.40;99.90
4435;DHT22;46552;52.150;8.428;2024-02-04T14:02:30;10.40;99.90
4435;DHT22;46552;52.150;8.428;2024-02-04T14:04:57;10.50;99.90
4435;DHT22;46552;52.150;8.428;2024-02-04T14:07:27;10.50;99.90
4435;DHT22;46552;52.150;8.428;2024-02-04T14:09:54;10.40;99.90
4435;DHT22;46552;52.150;8.428;2024-02-04T14:12:21;10.40;99.90
4435;DHT22;46552;52.150;8.428;2024-02-04T14:14:49;10.40;99.90
4435;DHT22;46552;52.150;8.428;2024-02-04T14:17:16;10.40;99.90
4435;DHT22;46552;52.150;8.428;2024-02-04T14:19:43;10.40;99.90
4435;DHT22;46552;52.150;8.428;2024-02-04T14:22:14;10.40;99.90
4435;DHT22;46552;52.150;8.428;2024-02-04T14:24:44;10.40;99.90
4435;DHT22;46552;52.150;8.428;2024-02-04T14:27:12;10.40;99.90
4435;DHT22;46552;52.150;8.428;2024-02-04T14:29:39;10.40;99.90
4435;DHT22;46552;52.150;8.428;2024-02-04T14:32:07;10.40;99.90
4435;DHT22;46552;52.150;8.428;2024-02-04T14:34:35;10.30;99.90
4435;DHT22;46552;52.150;8.428;2024-02-04T14:37:02;10.30;99.90
4435;DHT22;46552;52.150;8.428;2024-02-04T14:39:30;10.30;99.90
4435;DHT22;46552;52.150;8.428;2024-02-04T14:41:59;10.40;99.90
4435;DHT22;46552;52.150;8.428;2024-02-04T14:44:27;10.40;99.90
4435;DHT22;46552;52.150;8.428;2024-02-04T14:46:54;10.40;99.90
4435;DHT22;46552;52.150;8.428;2024-02-04T14:49:21;10.40;99.90
4435;DHT22;46552;52.150;8.428;2024-02-04T14:51:48;10.40;99.90
4435;DHT22;46552;52.150;8.428;2024-02-04T14:54:16;10.40;99.90
4435;DHT22;46552;52.150;8.428;2024-02-04T14:56:43;10.30;99.90
4435;DHT22;46552;52.150;8.428;2024-02-04T14:59:14;10.30;99.90
4435;DHT22;46552;52.150;8.428;2024-02-04T15:01:45;10.30;99.90
4435;DHT22;46552;52.150;8.428;2024-02-04T15:04:12;10.30;99.90
4435;DHT22;46552;52.150;8.428;2024-02-04T15:06:40;10.30;99.90
4435;DHT22;46552;52.150;8.428;2024-02-04T15:09:07;10.30;99.90
4435;DHT22;46552;52.150;8.428;2024-02-04T15:11:36;10.30;99.90
4435;DHT22;46552;52.150;8.428;2024-02-04T15:14:04;10.30;99.90
4435;DHT22;46552;52.150;8.428;2024-02-04T15:16:34;10.20;99.90
4435;DHT22;46552;52.150;8.428;2024-02-04T15:19:05;10.20;99.90
4435;DHT22;46552;52.150;8.428;2024-02-04T15:21:32;10.20;99.90
4435;DHT22;46552;52.150;8.428;2024-02-04T15:24:00;10.20;99.90
4435;DHT22;46552;52.150;8.428;2024-02-04T15:26:32;10.20;99.90
4435;DHT22;46552;52.150;8.428;2024-02-04T15:29:01;10.20;99.90
4435;DHT22;46552;52.150;8.428;2024-02-04T15:31:29;10.10;99.90
4435;DHT22;46552;52.150;8.428;2024-02-04T15:34:01;10.10;99.90
4435;DHT22;46552;52.150;8.428;2024-02-04T15:36:30;10.10;99.90
4435;DHT22;46552;52.150;8.428;2024-02-04T15:38:58;10.10;99.90
4435;DHT22;46552;52.150;8.428;2024-02-04T15:41:25;10.00;99.90
4435;DHT22;46552;52.150;8.428;2024-02-04T15:43:53;10.00;99.90
4435;DHT22;46552;52.150;8.428;2024-02-04T15:46:20;10.00;99.90
4435;DHT22;46552;52.150;8.428;2024-02-04T15:48:52;10.00;99.90
4435;DHT22;46552;52.150;8.428;2024-02-04T15:51:22;10.00;99.90
4435;DHT22;46552;52.150;8.428;2024-02-04T15:53:50;10.00;99.90
4435;DHT22;46552;52.150;8.428;2024-02-04T15:56:19;9.90;99.90
4435;DHT22;46552;52.150;8.428;2024-02-04T15:58:47;9.90;99.90
4435;DHT22;46552;52.150;8.428;2024-02-04T16:01:20;9.90;99.90